sensor_id;sensor_type;location;lat;lon;timestamp;P1;P2;P0
72485;PMS5003;60509;47.308;-122.428;2022-07-25T00:01:54;2;1;
72485;PMS5003;60509;47.308;-122.428;2022-07-25T00:04:20;0;0;
72485;PMS5003;60509;47.308;-122.428;2022-07-25T00:06:45;0;0;
72485;PMS5003;60509;47.308;-122.428;2022-07-25T00:09:10;0;0;
72485;PMS5003;60509;47.308;-122.428;2022-07-25T00:11:35;0;0;
72485;PMS5003;60509;47.308;-122.428;2022-07-25T00:14:00;0;0;
72485;PMS5003;60509;47.308;-122.428;2022-07-25T00:16:25;1;0;
72485;PMS5003;60509;47.308;-122.428;2022-07-25T00:18:50;1;1;
72485;PMS5003;60509;47.308;-122.428;2022-07-25T00:21:15;0;0;
72485;PMS5003;60509;47.308;-122.428;2022-07-25T00:23:40;1;0;
72485;PMS5003;60509;47.308;-122.428;2022-07-25T00:26:06;1;0;
72485;PMS5003;60509;47.308;-122.428;2022-07-25T00:28:31;0;0;
72485;PMS5003;60509;47.308;-122.428;2022-07-25T00:30:56;1;0;
72485;PMS5003;60509;47.308;-122.428;2022-07-25T00:33:21;0;0;
72485;PMS5003;60509;47.308;-122.428;2022-07-25T00:35:46;0;0;
72485;PMS5003;60509;47.308;-122.428;2022-07-25T00:38:11;0;0;
72485;PMS5003;60509;47.308;-122.428;2022-07-25T00:40:36;0;0;
72485;PMS5003;60509;47.308;-122.428;2022-07-25T00:43:01;0;0;
72485;PMS5003;60509;47.308;-122.428;2022-07-25T00:45:26;0;0;
72485;PMS5003;60509;47.308;-122.428;2022-07-25T00:47:51;0;0;
72485;PMS5003;60509;47.308;-122.428;2022-07-25T00:50:17;0;0;
72485;PMS5003;60509;47.308;-122.428;2022-07-25T00:52:41;0;0;
72485;PMS5003;60509;47.308;-122.428;2022-07-25T00:55:07;1;1;
72485;PMS5003;60509;47.308;-122.428;2022-07-25T00:57:31;0;0;
72485;PMS5003;60509;47.308;-122.428;2022-07-25T00:59:57;0;0;
72485;PMS5003;60509;47.308;-122.428;2022-07-25T01:02:22;0;0;
72485;PMS5003;60509;47.308;-122.428;2022-07-25T01:04:47;0;0;
72485;PMS5003;60509;47.308;-122.428;2022-07-25T01:07:12;0;0;
72485;PMS5003;60509;47.308;-122.428;2022-07-25T01:09:37;1;0;
72485;PMS5003;60509;47.308;-122.428;2022-07-25T01:12:02;0;0;
72485;PMS5003;60509;47.308;-122.428;2022-07-25T01:14:27;0;0;
72485;PMS5003;60509;47.308;-122.428;2022-07-25T01:16:52;0;0;
72485;PMS5003;60509;47.308;-122.428;2022-07-25T01:19:17;0;0;
72485;PMS5003;60509;47.308;-122.428;2022-07-25T01:21:42;1;0;
72485;PMS5003;60509;47.308;-122.428;2022-07-25T01:24:08;0;0;
72485;PMS5003;60509;47.308;-122.428;2022-07-25T01:26:32;1;0;
72485;PMS5003;60509;47.308;-122.428;2022-07-25T01:28:57;0;0;
72485;PMS5003;60509;47.308;-122.428;2022-07-25T01:31:22;0;0;
72485;PMS5003;60509;47.308;-122.428;2022-07-25T01:33:47;0;0;
72485;PMS5003;60509;47.308;-122.428;2022-07-25T01:36:12;1;0;
72485;PMS5003;60509;47.308;-122.428;2022-07-25T01:38:38;1;1;
72485;PMS5003;60509;47.308;-122.428;2022-07-25T01:41:03;1;1;
72485;PMS5003;60509;47.308;-122.428;2022-07-25T01:43:28;0;0;
72485;PMS5003;60509;47.308;-122.428;2022-07-25T01:45:53;2;2;
72485;PMS5003;60509;47.308;-122.428;2022-07-25T01:48:18;1;1;
72485;PMS5003;60509;47.308;-122.428;2022-07-25T01:50:44;2;2;
72485;PMS5003;60509;47.308;-122.428;2022-07-25T01:53:09;2;1;
72485;PMS5003;60509;47.308;-122.428;2022-07-25T01:55:34;1;1;
72485;PMS5003;60509;47.308;-122.428;2022-07-25T01:57:59;1;1;
72485;PMS5003;60509;47.308;-122.428;2022-07-25T02:00:25;1;1;
72485;PMS5003;60509;47.308;-122.428;2022-07-25T02:02:50;1;1;
72485;PMS5003;60509;47.308;-122.428;2022-07-25T02:05:15;2;2;
72485;PMS5003;60509;47.308;-122.428;2022-07-25T02:07:41;1;1;
72485;PMS5003;60509;47.308;-122.428;2022-07-25T02:10:06;1;1;
72485;PMS5003;60509;47.308;-122.428;2022-07-25T02:12:31;1;1;
72485;PMS5003;60509;47.308;-122.428;2022-07-25T02:14:56;1;1;
72485;PMS5003;60509;47.308;-122.428;2022-07-25T02:17:22;2;2;
72485;PMS5003;60509;47.308;-122.428;2022-07-25T02:19:47;3;3;
72485;PMS5003;60509;47.308;-122.428;2022-07-25T02:22:12;2;2;
72485;PMS5003;60509;47.308;-122.428;2022-07-25T02:24:37;2;2;
72485;PMS5003;60509;47.308;-122.428;2022-07-25T02:27:02;1;1;
72485;PMS5003;60509;47.308;-122.428;2022-07-25T02:29:28;1;0;
72485;PMS5003;60509;47.308;-122.428;2022-07-25T02:31:53;2;2;
72485;PMS5003;60509;47.308;-122.428;2022-07-25T02:34:18;2;2;
72485;PMS5003;60509;47.308;-122.428;2022-07-25T02:36:43;3;2;
72485;PMS5003;60509;47.308;-122.428;2022-07-25T02:39:08;2;2;
72485;PMS5003;60509;47.308;-122.428;2022-07-25T02:41:34;1;1;
72485;PMS5003;60509;47.308;-122.428;2022-07-25T02:43:59;4;4;
72485;PMS5003;60509;47.308;-122.428;2022-07-25T02:46:24;4;4;
72485;PMS5003;60509;47.308;-122.428;2022-07-25T02:48:49;2;1;
72485;PMS5003;60509;47.308;-122.428;2022-07-25T02:51:15;3;3;
72485;PMS5003;60509;47.308;-122.428;2022-07-25T02:53:40;2;2;
72485;PMS5003;60509;47.308;-122.428;2022-07-25T02:56:05;2;2;
72485;PMS5003;60509;47.308;-122.428;2022-07-25T02:58:31;3;1;
72485;PMS5003;60509;47.308;-122.428;2022-07-25T03:00:56;2;2;
72485;PMS5003;60509;47.308;-122.428;2022-07-25T03:03:22;3;2;
72485;PMS5003;60509;47.308;-122.428;2022-07-25T03:05:47;3;2;
72485;PMS5003;60509;47.308;-122.428;2022-07-25T03:08:12;2;2;
72485;PMS5003;60509;47.308;-122.428;2022-07-25T03:10:38;2;2;
72485;PMS5003;60509;47.308;-122.428;2022-07-25T03:13:03;2;1;
72485;PMS5003;60509;47.308;-122.428;2022-07-25T03:15:29;3;3;
72485;PMS5003;60509;47.308;-122.428;2022-07-25T03:17:54;2;1;
72485;PMS5003;60509;47.308;-122.428;2022-07-25T03:20:20;3;2;
72485;PMS5003;60509;47.308;-122.428;2022-07-25T03:22:45;2;2;
72485;PMS5003;60509;47.308;-122.428;2022-07-25T03:25:11;2;2;
72485;PMS5003;60509;47.308;-122.428;2022-07-25T03:27:36;1;1;
72485;PMS5003;60509;47.308;-122.428;2022-07-25T03:30:02;2;2;
72485;PMS5003;60509;47.308;-122.428;2022-07-25T03:32:28;1;1;
72485;PMS5003;60509;47.308;-122.428;2022-07-25T03:34:53;2;2;
72485;PMS5003;60509;47.308;-122.428;2022-07-25T03:37:18;3;2;
72485;PMS5003;60509;47.308;-122.428;2022-07-25T03:39:44;4;3;
72485;PMS5003;60509;47.308;-122.428;2022-07-25T03:42:10;2;2;
72485;PMS5003;60509;47.308;-122.428;2022-07-25T03:44:35;4;3;
72485;PMS5003;60509;47.308;-122.428;2022-07-25T03:47:01;3;3;
72485;PMS5003;60509;47.308;-122.428;2022-07-25T03:49:27;4;3;
72485;PMS5003;60509;47.308;-122.428;2022-07-25T03:51:52;2;2;
72485;PMS5003;60509;47.308;-122.428;2022-07-25T03:54:18;2;2;
72485;PMS5003;60509;47.308;-122.428;2022-07-25T03:56:44;4;4;
72485;PMS5003;60509;47.308;-122.428;2022-07-25T03:59:10;3;2;
72485;PMS5003;60509;47.308;-122.428;2022-07-25T04:01:35;5;5;
72485;PMS5003;60509;47.308;-122.428;2022-07-25T04:04:01;4;4;
72485;PMS5003;60509;47.308;-122.428;2022-07-25T04:06:27;3;3;
72485;PMS5003;60509;47.308;-122.428;2022-07-25T04:08:52;2;2;
72485;PMS5003;60509;47.308;-122.428;2022-07-25T04:11:18;3;2;
72485;PMS5003;60509;47.308;-122.428;2022-07-25T04:13:44;3;3;
72485;PMS5003;60509;47.308;-122.428;2022-07-25T04:16:10;2;2;
72485;PMS5003;60509;47.308;-122.428;2022-07-25T04:18:35;4;3;
72485;PMS5003;60509;47.308;-122.428;2022-07-25T04:21:01;4;4;
72485;PMS5003;60509;47.308;-122.428;2022-07-25T04:23:27;3;3;
72485;PMS5003;60509;47.308;-122.428;2022-07-25T04:25:52;4;4;
72485;PMS5003;60509;47.308;-122.428;2022-07-25T04:28:18;4;4;
72485;PMS5003;60509;47.308;-122.428;2022-07-25T04:30:44;5;5;
72485;PMS5003;60509;47.308;-122.428;2022-07-25T04:33:10;5;5;
72485;PMS5003;60509;47.308;-122.428;2022-07-25T04:35:35;6;5;
72485;PMS5003;60509;47.308;-122.428;2022-07-25T04:38:01;3;3;
72485;PMS5003;60509;47.308;-122.428;2022-07-25T04:40:27;3;2;
72485;PMS5003;60509;47.308;-122.428;2022-07-25T04:42:53;4;3;
72485;PMS5003;60509;47.308;-122.428;2022-07-25T04:45:19;6;4;
72485;PMS5003;60509;47.308;-122.428;2022-07-25T04:47:45;5;5;
72485;PMS5003;60509;47.308;-122.428;2022-07-25T04:50:10;5;4;
72485;PMS5003;60509;47.308;-122.428;2022-07-25T04:52:36;5;5;
72485;PMS5003;60509;47.308;-122.428;2022-07-25T04:55:02;5;5;
72485;PMS5003;60509;47.308;-122.428;2022-07-25T04:57:28;3;3;
72485;PMS5003;60509;47.308;-122.428;2022-07-25T04:59:54;2;2;
72485;PMS5003;60509;47.308;-122.428;2022-07-25T05:02:19;4;4;
72485;PMS5003;60509;47.308;-122.428;2022-07-25T05:04:45;4;4;
72485;PMS5003;60509;47.308;-122.428;2022-07-25T05:07:11;3;3;
72485;PMS5003;60509;47.308;-122.428;2022-07-25T05:09:37;4;3;
72485;PMS5003;60509;47.308;-122.428;2022-07-25T05:12:03;4;3;
72485;PMS5003;60509;47.308;-122.428;2022-07-25T05:14:29;4;4;
72485;PMS5003;60509;47.308;-122.428;2022-07-25T05:16:54;4;4;
72485;PMS5003;60509;47.308;-122.428;2022-07-25T05:19:20;5;5;
72485;PMS5003;60509;47.308;-122.428;2022-07-25T05:21:46;3;3;
72485;PMS5003;60509;47.308;-122.428;2022-07-25T05:24:12;4;4;
72485;PMS5003;60509;47.308;-122.428;2022-07-25T05:26:38;4;4;
72485;PMS5003;60509;47.308;-122.428;2022-07-25T05:29:03;4;4;
72485;PMS5003;60509;47.308;-122.428;2022-07-25T05:31:29;4;4;
72485;PMS5003;60509;47.308;-122.428;2022-07-25T05:33:55;4;4;
72485;PMS5003;60509;47.308;-122.428;2022-07-25T05:36:21;5;5;
72485;PMS5003;60509;47.308;-122.428;2022-07-25T05:38:47;4;4;
72485;PMS5003;60509;47.308;-122.428;2022-07-25T05:41:13;4;4;
72485;PMS5003;60509;47.308;-122.428;2022-07-25T05:43:39;5;4;
72485;PMS5003;60509;47.308;-122.428;2022-07-25T05:46:05;3;3;
72485;PMS5003;60509;47.308;-122.428;2022-07-25T05:48:30;6;5;
72485;PMS5003;60509;47.308;-122.428;2022-07-25T05:50:56;3;3;
72485;PMS5003;60509;47.308;-122.428;2022-07-25T05:53:22;4;4;
72485;PMS5003;60509;47.308;-122.428;2022-07-25T05:55:48;4;3;
72485;PMS5003;60509;47.308;-122.428;2022-07-25T05:58:14;4;4;
72485;PMS5003;60509;47.308;-122.428;2022-07-25T06:00:40;5;4;
72485;PMS5003;60509;47.308;-122.428;2022-07-25T06:03:06;4;4;
72485;PMS5003;60509;47.308;-122.428;2022-07-25T06:05:31;3;3;
72485;PMS5003;60509;47.308;-122.428;2022-07-25T06:07:57;5;4;
72485;PMS5003;60509;47.308;-122.428;2022-07-25T06:10:23;7;7;
72485;PMS5003;60509;47.308;-122.428;2022-07-25T06:12:49;5;5;
72485;PMS5003;60509;47.308;-122.428;2022-07-25T06:15:15;5;4;
72485;PMS5003;60509;47.308;-122.428;2022-07-25T06:17:41;5;4;
72485;PMS5003;60509;47.308;-122.428;2022-07-25T06:20:07;5;5;
72485;PMS5003;60509;47.308;-122.428;2022-07-25T06:22:32;5;5;
72485;PMS5003;60509;47.308;-122.428;2022-07-25T06:24:59;4;4;
72485;PMS5003;60509;47.308;-122.428;2022-07-25T06:27:24;5;4;
72485;PMS5003;60509;47.308;-122.428;2022-07-25T06:29:50;6;5;
72485;PMS5003;60509;47.308;-122.428;2022-07-25T06:32:16;5;5;
72485;PMS5003;60509;47.308;-122.428;2022-07-25T06:34:42;5;5;
72485;PMS5003;60509;47.308;-122.428;2022-07-25T06:37:08;5;5;
72485;PMS5003;60509;47.308;-122.428;2022-07-25T06:39:33;5;5;
72485;PMS5003;60509;47.308;-122.428;2022-07-25T06:41:59;7;7;
72485;PMS5003;60509;47.308;-122.428;2022-07-25T06:44:27;6;6;
72485;PMS5003;60509;47.308;-122.428;2022-07-25T06:46:51;6;5;
72485;PMS5003;60509;47.308;-122.428;2022-07-25T06:49:17;6;6;
72485;PMS5003;60509;47.308;-122.428;2022-07-25T06:51:43;5;5;
72485;PMS5003;60509;47.308;-122.428;2022-07-25T06:54:09;6;5;
72485;PMS5003;60509;47.308;-122.428;2022-07-25T06:56:35;5;5;
72485;PMS5003;60509;47.308;-122.428;2022-07-25T06:59:01;5;5;
72485;PMS5003;60509;47.308;-122.428;2022-07-25T07:01:26;7;6;
72485;PMS5003;60509;47.308;-122.428;2022-07-25T07:03:53;6;6;
72485;PMS5003;60509;47.308;-122.428;2022-07-25T07:06:18;6;5;
72485;PMS5003;60509;47.308;-122.428;2022-07-25T07:08:44;5;5;
72485;PMS5003;60509;47.308;-122.428;2022-07-25T07:11:10;5;5;
72485;PMS5003;60509;47.308;-122.428;2022-07-25T07:13:36;5;5;
72485;PMS5003;60509;47.308;-122.428;2022-07-25T07:16:02;7;6;
72485;PMS5003;60509;47.308;-122.428;2022-07-25T07:18:28;8;8;
72485;PMS5003;60509;47.308;-122.428;2022-07-25T07:20:54;6;6;
72485;PMS5003;60509;47.308;-122.428;2022-07-25T07:23:20;4;4;
72485;PMS5003;60509;47.308;-122.428;2022-07-25T07:25:45;11;8;
72485;PMS5003;60509;47.308;-122.428;2022-07-25T07:28:11;5;5;
72485;PMS5003;60509;47.308;-122.428;2022-07-25T07:30:37;6;6;
72485;PMS5003;60509;47.308;-122.428;2022-07-25T07:33:03;5;5;
72485;PMS5003;60509;47.308;-122.428;2022-07-25T07:35:29;7;7;
72485;PMS5003;60509;47.308;-122.428;2022-07-25T07:37:55;5;5;
72485;PMS5003;60509;47.308;-122.428;2022-07-25T07:40:21;6;5;
72485;PMS5003;60509;47.308;-122.428;2022-07-25T07:42:47;7;6;
72485;PMS5003;60509;47.308;-122.428;2022-07-25T07:45:14;8;8;
72485;PMS5003;60509;47.308;-122.428;2022-07-25T07:47:39;6;5;
72485;PMS5003;60509;47.308;-122.428;2022-07-25T07:50:05;6;6;
72485;PMS5003;60509;47.308;-122.428;2022-07-25T07:52:31;7;6;
72485;PMS5003;60509;47.308;-122.428;2022-07-25T07:54:57;6;6;
72485;PMS5003;60509;47.308;-122.428;2022-07-25T07:57:22;6;6;
72485;PMS5003;60509;47.308;-122.428;2022-07-25T07:59:48;6;6;
72485;PMS5003;60509;47.308;-122.428;2022-07-25T08:02:14;6;6;
72485;PMS5003;60509;47.308;-122.428;2022-07-25T08:04:40;6;6;
72485;PMS5003;60509;47.308;-122.428;2022-07-25T08:07:06;7;6;
72485;PMS5003;60509;47.308;-122.428;2022-07-25T08:09:32;5;5;
72485;PMS5003;60509;47.308;-122.428;2022-07-25T08:11:58;9;7;
72485;PMS5003;60509;47.308;-122.428;2022-07-25T08:14:24;6;6;
72485;PMS5003;60509;47.308;-122.428;2022-07-25T08:16:50;6;6;
72485;PMS5003;60509;47.308;-122.428;2022-07-25T08:19:15;4;4;
72485;PMS5003;60509;47.308;-122.428;2022-07-25T08:21:41;5;5;
72485;PMS5003;60509;47.308;-122.428;2022-07-25T08:24:07;4;4;
72485;PMS5003;60509;47.308;-122.428;2022-07-25T08:26:33;4;4;
72485;PMS5003;60509;47.308;-122.428;2022-07-25T08:28:59;4;4;
72485;PMS5003;60509;47.308;-122.428;2022-07-25T08:31:25;6;6;
72485;PMS5003;60509;47.308;-122.428;2022-07-25T08:33:51;4;4;
72485;PMS5003;60509;47.308;-122.428;2022-07-25T08:36:17;5;4;
72485;PMS5003;60509;47.308;-122.428;2022-07-25T08:38:43;5;4;
72485;PMS5003;60509;47.308;-122.428;2022-07-25T08:41:09;5;5;
72485;PMS5003;60509;47.308;-122.428;2022-07-25T08:43:34;5;5;
72485;PMS5003;60509;47.308;-122.428;2022-07-25T08:46:01;6;6;
72485;PMS5003;60509;47.308;-122.428;2022-07-25T08:48:26;4;4;
72485;PMS5003;60509;47.308;-122.428;2022-07-25T08:50:53;7;7;
72485;PMS5003;60509;47.308;-122.428;2022-07-25T08:53:19;8;6;
72485;PMS5003;60509;47.308;-122.428;2022-07-25T08:55:44;6;6;
72485;PMS5003;60509;47.308;-122.428;2022-07-25T08:58:11;5;5;
72485;PMS5003;60509;47.308;-122.428;2022-07-25T09:00:36;6;6;
72485;PMS5003;60509;47.308;-122.428;2022-07-25T09:03:02;6;6;
72485;PMS5003;60509;47.308;-122.428;2022-07-25T09:05:29;5;5;
72485;PMS5003;60509;47.308;-122.428;2022-07-25T09:07:55;6;6;
72485;PMS5003;60509;47.308;-122.428;2022-07-25T09:10:20;4;4;
72485;PMS5003;60509;47.308;-122.428;2022-07-25T09:12:50;5;5;
72485;PMS5003;60509;47.308;-122.428;2022-07-25T09:15:12;5;5;
72485;PMS5003;60509;47.308;-122.428;2022-07-25T09:17:38;4;4;
72485;PMS5003;60509;47.308;-122.428;2022-07-25T09:20:04;5;5;
72485;PMS5003;60509;47.308;-122.428;2022-07-25T09:22:29;6;6;
72485;PMS5003;60509;47.308;-122.428;2022-07-25T09:24:55;6;5;
72485;PMS5003;60509;47.308;-122.428;2022-07-25T09:27:21;6;6;
72485;PMS5003;60509;47.308;-122.428;2022-07-25T09:29:47;5;5;
72485;PMS5003;60509;47.308;-122.428;2022-07-25T09:32:14;5;5;
72485;PMS5003;60509;47.308;-122.428;2022-07-25T09:34:40;4;4;
72485;PMS5003;60509;47.308;-122.428;2022-07-25T09:37:06;6;6;
72485;PMS5003;60509;47.308;-122.428;2022-07-25T09:39:32;6;6;
72485;PMS5003;60509;47.308;-122.428;2022-07-25T09:41:57;7;7;
72485;PMS5003;60509;47.308;-122.428;2022-07-25T09:44:23;7;5;
72485;PMS5003;60509;47.308;-122.428;2022-07-25T09:46:49;6;6;
72485;PMS5003;60509;47.308;-122.428;2022-07-25T09:49:15;9;7;
72485;PMS5003;60509;47.308;-122.428;2022-07-25T09:51:41;6;6;
72485;PMS5003;60509;47.308;-122.428;2022-07-25T09:54:07;5;5;
72485;PMS5003;60509;47.308;-122.428;2022-07-25T09:56:33;7;6;
72485;PMS5003;60509;47.308;-122.428;2022-07-25T09:58:59;4;4;
72485;PMS5003;60509;47.308;-122.428;2022-07-25T10:01:26;7;7;
72485;PMS5003;60509;47.308;-122.428;2022-07-25T10:03:51;5;5;
72485;PMS5003;60509;47.308;-122.428;2022-07-25T10:06:18;6;6;
72485;PMS5003;60509;47.308;-122.428;2022-07-25T10:08:40;6;5;
72485;PMS5003;60509;47.308;-122.428;2022-07-25T10:11:17;6;6;
72485;PMS5003;60509;47.308;-122.428;2022-07-25T10:13:33;6;5;
72485;PMS5003;60509;47.308;-122.428;2022-07-25T10:15:59;6;6;
72485;PMS5003;60509;47.308;-122.428;2022-07-25T10:18:25;6;5;
72485;PMS5003;60509;47.308;-122.428;2022-07-25T10:20:51;7;5;
72485;PMS5003;60509;47.308;-122.428;2022-07-25T10:23:17;6;6;
72485;PMS5003;60509;47.308;-122.428;2022-07-25T10:25:42;4;4;
72485;PMS5003;60509;47.308;-122.428;2022-07-25T10:28:07;6;5;
72485;PMS5003;60509;47.308;-122.428;2022-07-25T10:30:34;8;6;
72485;PMS5003;60509;47.308;-122.428;2022-07-25T10:33:00;5;5;
72485;PMS5003;60509;47.308;-122.428;2022-07-25T10:35:26;6;6;
72485;PMS5003;60509;47.308;-122.428;2022-07-25T10:37:52;6;5;
72485;PMS5003;60509;47.308;-122.428;2022-07-25T10:40:25;6;5;
72485;PMS5003;60509;47.308;-122.428;2022-07-25T10:42:44;5;5;
72485;PMS5003;60509;47.308;-122.428;2022-07-25T10:45:10;6;6;
72485;PMS5003;60509;47.308;-122.428;2022-07-25T10:47:36;7;6;
72485;PMS5003;60509;47.308;-122.428;2022-07-25T10:50:02;5;5;
72485;PMS5003;60509;47.308;-122.428;2022-07-25T10:52:28;6;6;
72485;PMS5003;60509;47.308;-122.428;2022-07-25T10:54:54;5;5;
72485;PMS5003;60509;47.308;-122.428;2022-07-25T10:57:20;7;6;
72485;PMS5003;60509;47.308;-122.428;2022-07-25T10:59:46;7;7;
72485;PMS5003;60509;47.308;-122.428;2022-07-25T11:02:12;5;5;
72485;PMS5003;60509;47.308;-122.428;2022-07-25T11:04:37;7;7;
72485;PMS5003;60509;47.308;-122.428;2022-07-25T11:07:10;7;7;
72485;PMS5003;60509;47.308;-122.428;2022-07-25T11:09:27;5;5;
72485;PMS5003;60509;47.308;-122.428;2022-07-25T11:11:53;4;3;
72485;PMS5003;60509;47.308;-122.428;2022-07-25T11:14:18;5;5;
72485;PMS5003;60509;47.308;-122.428;2022-07-25T11:16:43;4;4;
72485;PMS5003;60509;47.308;-122.428;2022-07-25T11:19:14;7;7;
72485;PMS5003;60509;47.308;-122.428;2022-07-25T11:21:42;5;5;
72485;PMS5003;60509;47.308;-122.428;2022-07-25T11:23:58;4;4;
72485;PMS5003;60509;47.308;-122.428;2022-07-25T11:26:23;6;6;
72485;PMS5003;60509;47.308;-122.428;2022-07-25T11:28:48;5;5;
72485;PMS5003;60509;47.308;-122.428;2022-07-25T11:31:14;7;6;
72485;PMS5003;60509;47.308;-122.428;2022-07-25T11:33:39;6;6;
72485;PMS5003;60509;47.308;-122.428;2022-07-25T11:36:03;5;5;
72485;PMS5003;60509;47.308;-122.428;2022-07-25T11:38:28;8;7;
72485;PMS5003;60509;47.308;-122.428;2022-07-25T11:40:53;6;6;
72485;PMS5003;60509;47.308;-122.428;2022-07-25T11:43:18;6;6;
72485;PMS5003;60509;47.308;-122.428;2022-07-25T11:45:43;8;8;
72485;PMS5003;60509;47.308;-122.428;2022-07-25T11:48:11;6;6;
72485;PMS5003;60509;47.308;-122.428;2022-07-25T11:50:35;5;5;
72485;PMS5003;60509;47.308;-122.428;2022-07-25T11:52:59;3;3;
72485;PMS5003;60509;47.308;-122.428;2022-07-25T11:55:26;7;7;
72485;PMS5003;60509;47.308;-122.428;2022-07-25T11:57:50;7;6;
72485;PMS5003;60509;47.308;-122.428;2022-07-25T12:00:15;7;7;
72485;PMS5003;60509;47.308;-122.428;2022-07-25T12:02:40;7;6;
72485;PMS5003;60509;47.308;-122.428;2022-07-25T12:05:06;6;6;
72485;PMS5003;60509;47.308;-122.428;2022-07-25T12:07:35;6;6;
72485;PMS5003;60509;47.308;-122.428;2022-07-25T12:09:55;8;7;
72485;PMS5003;60509;47.308;-122.428;2022-07-25T12:12:20;6;5;
72485;PMS5003;60509;47.308;-122.428;2022-07-25T12:14:45;6;5;
72485;PMS5003;60509;47.308;-122.428;2022-07-25T12:17:10;6;5;
72485;PMS5003;60509;47.308;-122.428;2022-07-25T12:19:38;5;5;
72485;PMS5003;60509;47.308;-122.428;2022-07-25T12:22:00;6;6;
72485;PMS5003;60509;47.308;-122.428;2022-07-25T12:24:25;5;5;
72485;PMS5003;60509;47.308;-122.428;2022-07-25T12:26:50;6;6;
72485;PMS5003;60509;47.308;-122.428;2022-07-25T12:29:15;6;5;
72485;PMS5003;60509;47.308;-122.428;2022-07-25T12:31:40;6;6;
72485;PMS5003;60509;47.308;-122.428;2022-07-25T12:34:05;4;4;
72485;PMS5003;60509;47.308;-122.428;2022-07-25T12:36:30;5;5;
72485;PMS5003;60509;47.308;-122.428;2022-07-25T12:38:55;9;8;
72485;PMS5003;60509;47.308;-122.428;2022-07-25T12:41:20;6;6;
72485;PMS5003;60509;47.308;-122.428;2022-07-25T12:43:45;7;7;
72485;PMS5003;60509;47.308;-122.428;2022-07-25T12:46:10;7;7;
72485;PMS5003;60509;47.308;-122.428;2022-07-25T12:48:36;7;7;
72485;PMS5003;60509;47.308;-122.428;2022-07-25T12:51:01;7;7;
72485;PMS5003;60509;47.308;-122.428;2022-07-25T12:53:26;8;6;
72485;PMS5003;60509;47.308;-122.428;2022-07-25T12:55:51;6;6;
72485;PMS5003;60509;47.308;-122.428;2022-07-25T12:58:16;5;4;
72485;PMS5003;60509;47.308;-122.428;2022-07-25T13:00:41;6;5;
72485;PMS5003;60509;47.308;-122.428;2022-07-25T13:03:06;4;4;
72485;PMS5003;60509;47.308;-122.428;2022-07-25T13:05:31;7;7;
72485;PMS5003;60509;47.308;-122.428;2022-07-25T13:07:56;7;7;
72485;PMS5003;60509;47.308;-122.428;2022-07-25T13:10:21;8;8;
72485;PMS5003;60509;47.308;-122.428;2022-07-25T13:12:46;5;5;
72485;PMS5003;60509;47.308;-122.428;2022-07-25T13:15:11;7;6;
72485;PMS5003;60509;47.308;-122.428;2022-07-25T13:17:37;9;9;
72485;PMS5003;60509;47.308;-122.428;2022-07-25T13:20:02;4;4;
72485;PMS5003;60509;47.308;-122.428;2022-07-25T13:22:28;5;5;
72485;PMS5003;60509;47.308;-122.428;2022-07-25T13:24:53;7;5;
72485;PMS5003;60509;47.308;-122.428;2022-07-25T13:27:18;7;7;
72485;PMS5003;60509;47.308;-122.428;2022-07-25T13:29:43;7;7;
72485;PMS5003;60509;47.308;-122.428;2022-07-25T13:32:08;5;5;
72485;PMS5003;60509;47.308;-122.428;2022-07-25T13:34:33;6;5;
72485;PMS5003;60509;47.308;-122.428;2022-07-25T13:36:58;5;5;
72485;PMS5003;60509;47.308;-122.428;2022-07-25T13:39:23;7;7;
72485;PMS5003;60509;47.308;-122.428;2022-07-25T13:41:48;5;5;
72485;PMS5003;60509;47.308;-122.428;2022-07-25T13:44:14;7;7;
72485;PMS5003;60509;47.308;-122.428;2022-07-25T13:46:39;5;3;
72485;PMS5003;60509;47.308;-122.428;2022-07-25T13:49:04;6;6;
72485;PMS5003;60509;47.308;-122.428;2022-07-25T13:51:29;6;6;
72485;PMS5003;60509;47.308;-122.428;2022-07-25T13:53:54;7;7;
72485;PMS5003;60509;47.308;-122.428;2022-07-25T13:56:19;7;6;
72485;PMS5003;60509;47.308;-122.428;2022-07-25T13:58:44;8;8;
72485;PMS5003;60509;47.308;-122.428;2022-07-25T14:01:09;8;7;
72485;PMS5003;60509;47.308;-122.428;2022-07-25T14:03:34;7;6;
72485;PMS5003;60509;47.308;-122.428;2022-07-25T14:05:59;7;7;
72485;PMS5003;60509;47.308;-122.428;2022-07-25T14:08:24;7;7;
72485;PMS5003;60509;47.308;-122.428;2022-07-25T14:10:49;5;5;
72485;PMS5003;60509;47.308;-122.428;2022-07-25T14:13:14;7;6;
72485;PMS5003;60509;47.308;-122.428;2022-07-25T14:15:39;6;6;
72485;PMS5003;60509;47.308;-122.428;2022-07-25T14:18:04;6;6;
72485;PMS5003;60509;47.308;-122.428;2022-07-25T14:20:29;6;6;
72485;PMS5003;60509;47.308;-122.428;2022-07-25T14:22:54;7;7;
72485;PMS5003;60509;47.308;-122.428;2022-07-25T14:25:20;7;7;
72485;PMS5003;60509;47.308;-122.428;2022-07-25T14:27:45;6;6;
72485;PMS5003;60509;47.308;-122.428;2022-07-25T14:30:10;8;8;
72485;PMS5003;60509;47.308;-122.428;2022-07-25T14:32:35;7;6;
72485;PMS5003;60509;47.308;-122.428;2022-07-25T14:35:00;7;7;
72485;PMS5003;60509;47.308;-122.428;2022-07-25T14:37:25;6;6;
72485;PMS5003;60509;47.308;-122.428;2022-07-25T14:39:50;7;5;
72485;PMS5003;60509;47.308;-122.428;2022-07-25T14:42:15;6;6;
72485;PMS5003;60509;47.308;-122.428;2022-07-25T14:44:40;7;5;
72485;PMS5003;60509;47.308;-122.428;2022-07-25T14:47:05;7;7;
72485;PMS5003;60509;47.308;-122.428;2022-07-25T14:49:30;6;6;
72485;PMS5003;60509;47.308;-122.428;2022-07-25T14:51:55;7;6;
72485;PMS5003;60509;47.308;-122.428;2022-07-25T14:54:20;7;7;
72485;PMS5003;60509;47.308;-122.428;2022-07-25T14:56:45;8;8;
72485;PMS5003;60509;47.308;-122.428;2022-07-25T14:59:10;6;6;
72485;PMS5003;60509;47.308;-122.428;2022-07-25T15:01:37;9;7;
72485;PMS5003;60509;47.308;-122.428;2022-07-25T15:04:02;6;6;
72485;PMS5003;60509;47.308;-122.428;2022-07-25T15:06:28;6;5;
72485;PMS5003;60509;47.308;-122.428;2022-07-25T15:08:54;5;5;
72485;PMS5003;60509;47.308;-122.428;2022-07-25T15:11:20;7;7;
72485;PMS5003;60509;47.308;-122.428;2022-07-25T15:13:46;5;5;
72485;PMS5003;60509;47.308;-122.428;2022-07-25T15:16:11;5;5;
72485;PMS5003;60509;47.308;-122.428;2022-07-25T15:18:37;5;4;
72485;PMS5003;60509;47.308;-122.428;2022-07-25T15:21:03;6;5;
72485;PMS5003;60509;47.308;-122.428;2022-07-25T15:23:29;9;8;
72485;PMS5003;60509;47.308;-122.428;2022-07-25T15:25:56;8;7;
72485;PMS5003;60509;47.308;-122.428;2022-07-25T15:28:21;9;9;
72485;PMS5003;60509;47.308;-122.428;2022-07-25T15:30:47;7;7;
72485;PMS5003;60509;47.308;-122.428;2022-07-25T15:33:14;6;6;
72485;PMS5003;60509;47.308;-122.428;2022-07-25T15:35:39;8;8;
72485;PMS5003;60509;47.308;-122.428;2022-07-25T15:38:05;8;8;
72485;PMS5003;60509;47.308;-122.428;2022-07-25T15:40:31;9;9;
72485;PMS5003;60509;47.308;-122.428;2022-07-25T15:42:57;8;8;
72485;PMS5003;60509;47.308;-122.428;2022-07-25T15:45:23;8;7;
72485;PMS5003;60509;47.308;-122.428;2022-07-25T15:47:49;9;9;
72485;PMS5003;60509;47.308;-122.428;2022-07-25T15:50:15;7;7;